Details From KCRG - Craig Muni
To KAPF - Naples Muni
Flight Number -
Tags Generated
Created
Modified
Stats Distance 252 nm / 467 km
Max Altitude 0 ft / 0 m
Waypoints 3
Social Downloads 1
Likes 0
Share VATSIM

Download

Looking for another format? Having issues loading an existing format? Contact us
Advertisement - Login to hide

Notes

Generated

Route

KCRG HICUP KAPF

ID Type Via Altitude Latitude Longitude Leg Dist Tot Dist Heading (true) Name
O KCRG APT - 0 ft / 0 m 30.34377˚ -81.51894˚ - 0 nm - -
HICUP FIX - 0 ft / 0 m 26.41361˚ -81.77728˚ 236 nm 236 nm 183° / 183° -
O KAPF APT - 0 ft / 0 m 26.14778˚ -81.78194˚ 15 nm 252 nm 181° / 181° Naples Muni

Altitude Profile

Advertisement - Login to hide

Weather


0- 5 10 15 20 25 30 35+ Temperature / ° C

Clouds and Precipitation
Forecast for 2018-05-26 06:00 UTC. Updated 5 hours ago

Ground ~20,000 ft ~40,000 ft Winds

KCRG

Details ICAO KCRG
Name Craig Muni
Region United States
Timezone America/New_York (UTC-4.0)
Stats Elevation 41 ft / 12 m (AMSL)
Location 30.336334° -81.514457°
Runways 2
Magnetic Variation 6.592° W

METAR

KCRG 260953Z AUTO 00000KT 10SM CLR 22/22 A2996 RMK AO2 SLP145 T02170217

Decode

TAF

TAF KCRG 260520Z 2606/2706 18003KT P6SM SCT030 BKN250 FM261400 15007KT P6SM VCSH SCT020 BKN250 FM261700 12012KT P6SM SCT035 BKN250 FM270000 13008KT P6SM VCSH SCT040 BKN080

Decode

Departure Runways

ID Width Length Bearing (true) Bearing (mag) Surface Threshold Offset Overrun Length
05 100 ft / 30 m 4,007 ft / 1,221 m 44.86° 51.45° Asphalt 0 ft / 0 m 75 ft / 23 m
14 100 ft / 30 m 4,001 ft / 1,220 m 135.16° 141.75° Asphalt 0 ft / 0 m 75 ft / 23 m
23 100 ft / 30 m 4,007 ft / 1,221 m 224.87° 231.46° Asphalt 0 ft / 0 m 75 ft / 23 m
32 100 ft / 30 m 4,001 ft / 1,220 m 315.16° 321.75° Asphalt 0 ft / 0 m 75 ft / 23 m

KAPF

Details ICAO KAPF (APF)
Name Naples Muni
Region United States
Timezone America/New_York (UTC-4.0)
Stats Elevation 8 ft / 2 m (AMSL)
Location 26.151612° -81.776854°
Runways 3
Magnetic Variation 5.816° W

METAR

KAPF 260953Z 06005KT 9SM RA FEW025 BKN050 23/ A2988 RMK AO2 RAB49 SLP118 P0000 T0228 $

Decode

TAF

KAPF 260904Z 2609/2706 VRB06KT P6SM VCSH FEW025 SCT050 OVC070 FM261200 10008KT 6SM SHRA SCT025 OVC035 FM261400 11011KT 6SM SHRA VCTS FEW007 SCT015 BKN025CB

Decode

Destination Runways

ID Width Length Bearing (true) Bearing (mag) Surface Threshold Offset Overrun Length
05 150 ft / 46 m 5,296 ft / 1,614 m 44.07° 49.89° Asphalt 290 ft / 88 m 0 ft / 0 m
05R 100 ft / 30 m 1,833 ft / 559 m 44.02° 49.84° Grass 0 ft / 0 m 0 ft / 0 m
14 100 ft / 30 m 5,006 ft / 1,526 m 134.39° 140.21° Asphalt 130 ft / 40 m 0 ft / 0 m
23 150 ft / 46 m 5,296 ft / 1,614 m 224.08° 229.90° Asphalt 0 ft / 0 m 0 ft / 0 m
23L 100 ft / 30 m 1,833 ft / 559 m 224.03° 229.85° Grass 0 ft / 0 m 0 ft / 0 m
32 100 ft / 30 m 5,006 ft / 1,526 m 314.39° 320.21° Asphalt 450 ft / 137 m 0 ft / 0 m

Popular Alternatives